<?xml version="1.0" encoding="UTF-8" standalone="no" ?>
<gpx xmlns="http://www.topografix.com/GPX/1/1" xmlns:xsi="http://www.w3.org/2001/XMLSchema-instance" xsi:schemaLocation="http://www.topografix.com/GPX/1/1 http://www.topografix.com/GPX/1/1/gpx.xsd" version="1.1" creator="VisuGPX - https://www.visugpx.com">
  <metadata>
    <name>TRANS WEST 50 2019</name>
  </metadata>
  <wpt lat="43.69383" lon="6.81277">
    <ele>617</ele>
    <name><![CDATA[]]></name>
    <desc><![CDATA[]]></desc>
  </wpt>
  <wpt lat="43.6308" lon="6.84291">
    <ele>239.5</ele>
    <name><![CDATA[]]></name>
    <desc><![CDATA[]]></desc>
  </wpt>
  <wpt lat="43.53243" lon="6.86333">
    <ele>74</ele>
    <name><![CDATA[]]></name>
    <desc><![CDATA[]]></desc>
  </wpt>
  <trk>
    <name><![CDATA[10145692-TRANS WEST 50 final]]></name>
    <trkseg>
      <trkpt lat="43.75606" lon="6.76221">
        <ele>1350</ele>
        <time>2019-10-03T07:50:45Z</time>
      </trkpt>
      <trkpt lat="43.75522" lon="6.76341">
        <ele>1357</ele>
        <time>2019-10-03T07:51:13Z</time>
      </trkpt>
      <trkpt lat="43.75641" lon="6.76594">
        <ele>1376</ele>
        <time>2019-10-03T07:52:04Z</time>
      </trkpt>
      <trkpt lat="43.75734" lon="6.76577">
        <ele>1359</ele>
        <time>2019-10-03T07:52:26Z</time>
      </trkpt>
      <trkpt lat="43.7582" lon="6.76647">
        <ele>1366</ele>
        <time>2019-10-03T07:52:49Z</time>
      </trkpt>
      <trkpt lat="43.75833" lon="6.76554">
        <ele>1364</ele>
        <time>2019-10-03T07:53:05Z</time>
      </trkpt>
      <trkpt lat="43.75794" lon="6.76587">
        <ele>1362</ele>
        <time>2019-10-03T07:53:16Z</time>
      </trkpt>
      <trkpt lat="43.75802" lon="6.76541">
        <ele>1360</ele>
        <time>2019-10-03T07:53:24Z</time>
      </trkpt>
      <trkpt lat="43.7577" lon="6.76563">
        <ele>1359</ele>
        <time>2019-10-03T07:53:32Z</time>
      </trkpt>
      <trkpt lat="43.75781" lon="6.76513">
        <ele>1356</ele>
        <time>2019-10-03T07:53:41Z</time>
      </trkpt>
      <trkpt lat="43.75715" lon="6.7638">
        <ele>1350</ele>
        <time>2019-10-03T07:54:08Z</time>
      </trkpt>
      <trkpt lat="43.75696" lon="6.76286">
        <ele>1348</ele>
        <time>2019-10-03T07:54:25Z</time>
      </trkpt>
      <trkpt lat="43.75652" lon="6.76269">
        <ele>1349</ele>
        <time>2019-10-03T07:54:35Z</time>
      </trkpt>
      <trkpt lat="43.75607" lon="6.76188">
        <ele>1351</ele>
        <time>2019-10-03T07:54:53Z</time>
      </trkpt>
      <trkpt lat="43.75566" lon="6.76189">
        <ele>1353</ele>
        <time>2019-10-03T07:55:02Z</time>
      </trkpt>
      <trkpt lat="43.75542" lon="6.76277">
        <ele>1353</ele>
        <time>2019-10-03T07:55:18Z</time>
      </trkpt>
      <trkpt lat="43.75414" lon="6.7624">
        <ele>1354</ele>
        <time>2019-10-03T07:55:49Z</time>
      </trkpt>
      <trkpt lat="43.75415" lon="6.76118">
        <ele>1346</ele>
        <time>2019-10-03T07:56:09Z</time>
      </trkpt>
      <trkpt lat="43.75323" lon="6.75999">
        <ele>1337</ele>
        <time>2019-10-03T07:56:39Z</time>
      </trkpt>
      <trkpt lat="43.75196" lon="6.75671">
        <ele>1310</ele>
        <time>2019-10-03T07:57:41Z</time>
      </trkpt>
      <trkpt lat="43.75043" lon="6.75413">
        <ele>1252</ele>
        <time>2019-10-03T07:58:38Z</time>
      </trkpt>
      <trkpt lat="43.74903" lon="6.75275">
        <ele>1209</ele>
        <time>2019-10-03T07:59:18Z</time>
      </trkpt>
      <trkpt lat="43.748" lon="6.75258">
        <ele>1178</ele>
        <time>2019-10-03T07:59:42Z</time>
      </trkpt>
      <trkpt lat="43.74694" lon="6.75327">
        <ele>1168</ele>
        <time>2019-10-03T08:00:09Z</time>
      </trkpt>
      <trkpt lat="43.74696" lon="6.7522">
        <ele>1150</ele>
        <time>2019-10-03T08:00:28Z</time>
      </trkpt>
      <trkpt lat="43.74641" lon="6.75179">
        <ele>1129</ele>
        <time>2019-10-03T08:00:42Z</time>
      </trkpt>
      <trkpt lat="43.74515" lon="6.75205">
        <ele>1115</ele>
        <time>2019-10-03T08:01:12Z</time>
      </trkpt>
      <trkpt lat="43.74442" lon="6.75212">
        <ele>1100</ele>
        <time>2019-10-03T08:01:29Z</time>
      </trkpt>
      <trkpt lat="43.74414" lon="6.75256">
        <ele>1100</ele>
        <time>2019-10-03T08:01:39Z</time>
      </trkpt>
      <trkpt lat="43.7437" lon="6.75302">
        <ele>1092</ele>
        <time>2019-10-03T08:01:52Z</time>
      </trkpt>
      <trkpt lat="43.74355" lon="6.75245">
        <ele>1080</ele>
        <time>2019-10-03T08:02:02Z</time>
      </trkpt>
      <trkpt lat="43.74331" lon="6.75284">
        <ele>1077</ele>
        <time>2019-10-03T08:02:11Z</time>
      </trkpt>
      <trkpt lat="43.74323" lon="6.75331">
        <ele>1079</ele>
        <time>2019-10-03T08:02:19Z</time>
      </trkpt>
      <trkpt lat="43.74338" lon="6.75399">
        <ele>1081</ele>
        <time>2019-10-03T08:02:31Z</time>
      </trkpt>
      <trkpt lat="43.74298" lon="6.75421">
        <ele>1064</ele>
        <time>2019-10-03T08:02:41Z</time>
      </trkpt>
      <trkpt lat="43.74312" lon="6.75492">
        <ele>1071</ele>
        <time>2019-10-03T08:02:53Z</time>
      </trkpt>
      <trkpt lat="43.74275" lon="6.75554">
        <ele>1064</ele>
        <time>2019-10-03T08:03:07Z</time>
      </trkpt>
      <trkpt lat="43.74195" lon="6.75612">
        <ele>1045</ele>
        <time>2019-10-03T08:03:28Z</time>
      </trkpt>
      <trkpt lat="43.74169" lon="6.7566">
        <ele>1044</ele>
        <time>2019-10-03T08:03:38Z</time>
      </trkpt>
      <trkpt lat="43.74145" lon="6.75768">
        <ele>1040</ele>
        <time>2019-10-03T08:03:57Z</time>
      </trkpt>
      <trkpt lat="43.74098" lon="6.75945">
        <ele>1031</ele>
        <time>2019-10-03T08:04:29Z</time>
      </trkpt>
      <trkpt lat="43.74074" lon="6.75956">
        <ele>1023</ele>
        <time>2019-10-03T08:04:35Z</time>
      </trkpt>
      <trkpt lat="43.74055" lon="6.76058">
        <ele>1023</ele>
        <time>2019-10-03T08:04:53Z</time>
      </trkpt>
      <trkpt lat="43.74089" lon="6.76193">
        <ele>1024</ele>
        <time>2019-10-03T08:05:17Z</time>
      </trkpt>
      <trkpt lat="43.74024" lon="6.76239">
        <ele>1007</ele>
        <time>2019-10-03T08:05:34Z</time>
      </trkpt>
      <trkpt lat="43.7401" lon="6.76247">
        <ele>1003</ele>
        <time>2019-10-03T08:05:37Z</time>
      </trkpt>
      <trkpt lat="43.74044" lon="6.76344">
        <ele>1008</ele>
        <time>2019-10-03T08:05:55Z</time>
      </trkpt>
      <trkpt lat="43.74002" lon="6.76397">
        <ele>992</ele>
        <time>2019-10-03T08:06:09Z</time>
      </trkpt>
      <trkpt lat="43.74011" lon="6.76466">
        <ele>995</ele>
        <time>2019-10-03T08:06:21Z</time>
      </trkpt>
      <trkpt lat="43.73958" lon="6.76573">
        <ele>993</ele>
        <time>2019-10-03T08:06:42Z</time>
      </trkpt>
      <trkpt lat="43.73918" lon="6.76622">
        <ele>988</ele>
        <time>2019-10-03T08:06:55Z</time>
      </trkpt>
      <trkpt lat="43.7379" lon="6.76854">
        <ele>1009</ele>
        <time>2019-10-03T08:07:44Z</time>
      </trkpt>
      <trkpt lat="43.73741" lon="6.76941">
        <ele>1021</ele>
        <time>2019-10-03T08:08:03Z</time>
      </trkpt>
      <trkpt lat="43.73679" lon="6.77007">
        <ele>1023</ele>
        <time>2019-10-03T08:08:21Z</time>
      </trkpt>
      <trkpt lat="43.73604" lon="6.77055">
        <ele>1023</ele>
        <time>2019-10-03T08:08:40Z</time>
      </trkpt>
      <trkpt lat="43.73531" lon="6.77077">
        <ele>1021</ele>
        <time>2019-10-03T08:08:58Z</time>
      </trkpt>
      <trkpt lat="43.73442" lon="6.77118">
        <ele>1018</ele>
        <time>2019-10-03T08:09:20Z</time>
      </trkpt>
      <trkpt lat="43.73416" lon="6.77159">
        <ele>1023</ele>
        <time>2019-10-03T08:09:29Z</time>
      </trkpt>
      <trkpt lat="43.73359" lon="6.77185">
        <ele>1012</ele>
        <time>2019-10-03T08:09:43Z</time>
      </trkpt>
      <trkpt lat="43.73286" lon="6.77247">
        <ele>999</ele>
        <time>2019-10-03T08:10:03Z</time>
      </trkpt>
      <trkpt lat="43.73186" lon="6.77529">
        <ele>991</ele>
        <time>2019-10-03T08:10:56Z</time>
      </trkpt>
      <trkpt lat="43.73142" lon="6.776">
        <ele>987</ele>
        <time>2019-10-03T08:11:12Z</time>
      </trkpt>
      <trkpt lat="43.73071" lon="6.77706">
        <ele>981</ele>
        <time>2019-10-03T08:11:36Z</time>
      </trkpt>
      <trkpt lat="43.73012" lon="6.77882">
        <ele>975</ele>
        <time>2019-10-03T08:12:09Z</time>
      </trkpt>
      <trkpt lat="43.72959" lon="6.78038">
        <ele>963</ele>
        <time>2019-10-03T08:12:38Z</time>
      </trkpt>
      <trkpt lat="43.72906" lon="6.78113">
        <ele>959</ele>
        <time>2019-10-03T08:12:56Z</time>
      </trkpt>
      <trkpt lat="43.72895" lon="6.78144">
        <ele>960</ele>
        <time>2019-10-03T08:13:01Z</time>
      </trkpt>
      <trkpt lat="43.72872" lon="6.78185">
        <ele>959</ele>
        <time>2019-10-03T08:13:10Z</time>
      </trkpt>
      <trkpt lat="43.7282" lon="6.78193">
        <ele>955</ele>
        <time>2019-10-03T08:13:22Z</time>
      </trkpt>
      <trkpt lat="43.72811" lon="6.78014">
        <ele>943</ele>
        <time>2019-10-03T08:13:53Z</time>
      </trkpt>
      <trkpt lat="43.7281" lon="6.77964">
        <ele>939</ele>
        <time>2019-10-03T08:14:01Z</time>
      </trkpt>
      <trkpt lat="43.72828" lon="6.77876">
        <ele>935</ele>
        <time>2019-10-03T08:14:17Z</time>
      </trkpt>
      <trkpt lat="43.72794" lon="6.7789">
        <ele>932</ele>
        <time>2019-10-03T08:14:25Z</time>
      </trkpt>
      <trkpt lat="43.72802" lon="6.77848">
        <ele>930</ele>
        <time>2019-10-03T08:14:32Z</time>
      </trkpt>
      <trkpt lat="43.72729" lon="6.77863">
        <ele>918</ele>
        <time>2019-10-03T08:14:49Z</time>
      </trkpt>
      <trkpt lat="43.72693" lon="6.77995">
        <ele>925</ele>
        <time>2019-10-03T08:15:13Z</time>
      </trkpt>
      <trkpt lat="43.72648" lon="6.7811">
        <ele>932</ele>
        <time>2019-10-03T08:15:35Z</time>
      </trkpt>
      <trkpt lat="43.72515" lon="6.78123">
        <ele>921</ele>
        <time>2019-10-03T08:16:06Z</time>
      </trkpt>
      <trkpt lat="43.72376" lon="6.78144">
        <ele>918</ele>
        <time>2019-10-03T08:16:39Z</time>
      </trkpt>
      <trkpt lat="43.7232" lon="6.78225">
        <ele>929</ele>
        <time>2019-10-03T08:16:58Z</time>
      </trkpt>
      <trkpt lat="43.72263" lon="6.78256">
        <ele>932</ele>
        <time>2019-10-03T08:17:12Z</time>
      </trkpt>
      <trkpt lat="43.72214" lon="6.78006">
        <ele>930</ele>
        <time>2019-10-03T08:17:56Z</time>
      </trkpt>
      <trkpt lat="43.72239" lon="6.77845">
        <ele>925</ele>
        <time>2019-10-03T08:18:24Z</time>
      </trkpt>
      <trkpt lat="43.72201" lon="6.77725">
        <ele>930</ele>
        <time>2019-10-03T08:18:46Z</time>
      </trkpt>
      <trkpt lat="43.72182" lon="6.7775">
        <ele>938</ele>
        <time>2019-10-03T08:18:52Z</time>
      </trkpt>
      <trkpt lat="43.72182" lon="6.77784">
        <ele>941</ele>
        <time>2019-10-03T08:18:58Z</time>
      </trkpt>
      <trkpt lat="43.72158" lon="6.77771">
        <ele>947</ele>
        <time>2019-10-03T08:19:04Z</time>
      </trkpt>
      <trkpt lat="43.72162" lon="6.77821">
        <ele>949</ele>
        <time>2019-10-03T08:19:12Z</time>
      </trkpt>
      <trkpt lat="43.72102" lon="6.77771">
        <ele>961</ele>
        <time>2019-10-03T08:19:29Z</time>
      </trkpt>
      <trkpt lat="43.72089" lon="6.77856">
        <ele>972</ele>
        <time>2019-10-03T08:19:43Z</time>
      </trkpt>
      <trkpt lat="43.72045" lon="6.77781">
        <ele>979</ele>
        <time>2019-10-03T08:20:00Z</time>
      </trkpt>
      <trkpt lat="43.72046" lon="6.77898">
        <ele>990</ele>
        <time>2019-10-03T08:20:19Z</time>
      </trkpt>
      <trkpt lat="43.71985" lon="6.78573">
        <ele>1046</ele>
        <time>2019-10-03T08:22:14Z</time>
      </trkpt>
      <trkpt lat="43.72043" lon="6.78851">
        <ele>1069</ele>
        <time>2019-10-03T08:23:03Z</time>
      </trkpt>
      <trkpt lat="43.72105" lon="6.78975">
        <ele>1078</ele>
        <time>2019-10-03T08:23:28Z</time>
      </trkpt>
      <trkpt lat="43.72103" lon="6.79026">
        <ele>1088</ele>
        <time>2019-10-03T08:23:37Z</time>
      </trkpt>
      <trkpt lat="43.72156" lon="6.79109">
        <ele>1092</ele>
        <time>2019-10-03T08:23:56Z</time>
      </trkpt>
      <trkpt lat="43.7233" lon="6.79405">
        <ele>1098</ele>
        <time>2019-10-03T08:25:00Z</time>
      </trkpt>
      <trkpt lat="43.7237" lon="6.79476">
        <ele>1087</ele>
        <time>2019-10-03T08:25:15Z</time>
      </trkpt>
      <trkpt lat="43.7234" lon="6.79516">
        <ele>1083</ele>
        <time>2019-10-03T08:25:25Z</time>
      </trkpt>
      <trkpt lat="43.72311" lon="6.79483">
        <ele>1083</ele>
        <time>2019-10-03T08:25:34Z</time>
      </trkpt>
      <trkpt lat="43.7232" lon="6.79528">
        <ele>1075</ele>
        <time>2019-10-03T08:25:42Z</time>
      </trkpt>
      <trkpt lat="43.72262" lon="6.79491">
        <ele>1066</ele>
        <time>2019-10-03T08:25:57Z</time>
      </trkpt>
      <trkpt lat="43.72235" lon="6.79467">
        <ele>1067</ele>
        <time>2019-10-03T08:26:04Z</time>
      </trkpt>
      <trkpt lat="43.72188" lon="6.79417">
        <ele>1077</ele>
        <time>2019-10-03T08:26:18Z</time>
      </trkpt>
      <trkpt lat="43.72117" lon="6.79402">
        <ele>1074</ele>
        <time>2019-10-03T08:26:35Z</time>
      </trkpt>
      <trkpt lat="43.72051" lon="6.79436">
        <ele>1046</ele>
        <time>2019-10-03T08:26:51Z</time>
      </trkpt>
      <trkpt lat="43.71976" lon="6.79381">
        <ele>1056</ele>
        <time>2019-10-03T08:27:11Z</time>
      </trkpt>
      <trkpt lat="43.71857" lon="6.7939">
        <ele>1041</ele>
        <time>2019-10-03T08:27:39Z</time>
      </trkpt>
      <trkpt lat="43.71798" lon="6.79457">
        <ele>1012</ele>
        <time>2019-10-03T08:27:57Z</time>
      </trkpt>
      <trkpt lat="43.7175" lon="6.79467">
        <ele>1012</ele>
        <time>2019-10-03T08:28:08Z</time>
      </trkpt>
      <trkpt lat="43.71654" lon="6.79411">
        <ele>1019</ele>
        <time>2019-10-03T08:28:32Z</time>
      </trkpt>
      <trkpt lat="43.7161" lon="6.79382">
        <ele>1020</ele>
        <time>2019-10-03T08:28:44Z</time>
      </trkpt>
      <trkpt lat="43.71546" lon="6.7934">
        <ele>1020</ele>
        <time>2019-10-03T08:29:00Z</time>
      </trkpt>
      <trkpt lat="43.71476" lon="6.79311">
        <ele>1011</ele>
        <time>2019-10-03T08:29:17Z</time>
      </trkpt>
      <trkpt lat="43.71341" lon="6.79238">
        <ele>1003</ele>
        <time>2019-10-03T08:29:51Z</time>
      </trkpt>
      <trkpt lat="43.71288" lon="6.79254">
        <ele>983</ele>
        <time>2019-10-03T08:30:04Z</time>
      </trkpt>
      <trkpt lat="43.7126" lon="6.79262">
        <ele>973</ele>
        <time>2019-10-03T08:30:11Z</time>
      </trkpt>
      <trkpt lat="43.71213" lon="6.79248">
        <ele>974</ele>
        <time>2019-10-03T08:30:22Z</time>
      </trkpt>
      <trkpt lat="43.71201" lon="6.79276">
        <ele>960</ele>
        <time>2019-10-03T08:30:27Z</time>
      </trkpt>
      <trkpt lat="43.71119" lon="6.79323">
        <ele>931</ele>
        <time>2019-10-03T08:30:48Z</time>
      </trkpt>
      <trkpt lat="43.71146" lon="6.79342">
        <ele>924</ele>
        <time>2019-10-03T08:30:55Z</time>
      </trkpt>
      <trkpt lat="43.71084" lon="6.79378">
        <ele>903</ele>
        <time>2019-10-03T08:31:11Z</time>
      </trkpt>
      <trkpt lat="43.70922" lon="6.7943">
        <ele>864</ele>
        <time>2019-10-03T08:31:50Z</time>
      </trkpt>
      <trkpt lat="43.70911" lon="6.79453">
        <ele>857</ele>
        <time>2019-10-03T08:31:54Z</time>
      </trkpt>
      <trkpt lat="43.70931" lon="6.79496">
        <ele>846</ele>
        <time>2019-10-03T08:32:03Z</time>
      </trkpt>
      <trkpt lat="43.71056" lon="6.79555">
        <ele>854</ele>
        <time>2019-10-03T08:32:34Z</time>
      </trkpt>
      <trkpt lat="43.7113" lon="6.79769">
        <ele>843</ele>
        <time>2019-10-03T08:33:14Z</time>
      </trkpt>
      <trkpt lat="43.71136" lon="6.79827">
        <ele>840</ele>
        <time>2019-10-03T08:33:24Z</time>
      </trkpt>
      <trkpt lat="43.71253" lon="6.79901">
        <ele>838</ele>
        <time>2019-10-03T08:33:54Z</time>
      </trkpt>
      <trkpt lat="43.71354" lon="6.79951">
        <ele>818</ele>
        <time>2019-10-03T08:34:19Z</time>
      </trkpt>
      <trkpt lat="43.71428" lon="6.79952">
        <ele>808</ele>
        <time>2019-10-03T08:34:36Z</time>
      </trkpt>
      <trkpt lat="43.71509" lon="6.80044">
        <ele>784</ele>
        <time>2019-10-03T08:35:01Z</time>
      </trkpt>
      <trkpt lat="43.71588" lon="6.80102">
        <ele>770</ele>
        <time>2019-10-03T08:35:21Z</time>
      </trkpt>
      <trkpt lat="43.71657" lon="6.80136">
        <ele>754</ele>
        <time>2019-10-03T08:35:39Z</time>
      </trkpt>
      <trkpt lat="43.71741" lon="6.80123">
        <ele>749</ele>
        <time>2019-10-03T08:35:58Z</time>
      </trkpt>
      <trkpt lat="43.71802" lon="6.80165">
        <ele>735</ele>
        <time>2019-10-03T08:36:14Z</time>
      </trkpt>
      <trkpt lat="43.71818" lon="6.80211">
        <ele>721</ele>
        <time>2019-10-03T08:36:23Z</time>
      </trkpt>
      <trkpt lat="43.71688" lon="6.80235">
        <ele>714</ele>
        <time>2019-10-03T08:36:53Z</time>
      </trkpt>
      <trkpt lat="43.71633" lon="6.80325">
        <ele>691</ele>
        <time>2019-10-03T08:37:13Z</time>
      </trkpt>
      <trkpt lat="43.71582" lon="6.80409">
        <ele>676</ele>
        <time>2019-10-03T08:37:32Z</time>
      </trkpt>
      <trkpt lat="43.7155" lon="6.8042">
        <ele>671</ele>
        <time>2019-10-03T08:37:40Z</time>
      </trkpt>
      <trkpt lat="43.71518" lon="6.8038">
        <ele>678</ele>
        <time>2019-10-03T08:37:50Z</time>
      </trkpt>
      <trkpt lat="43.7142" lon="6.8038">
        <ele>671</ele>
        <time>2019-10-03T08:38:13Z</time>
      </trkpt>
      <trkpt lat="43.71346" lon="6.80385">
        <ele>663</ele>
        <time>2019-10-03T08:38:30Z</time>
      </trkpt>
      <trkpt lat="43.71279" lon="6.80385">
        <ele>665</ele>
        <time>2019-10-03T08:38:45Z</time>
      </trkpt>
      <trkpt lat="43.71238" lon="6.80445">
        <ele>647</ele>
        <time>2019-10-03T08:38:59Z</time>
      </trkpt>
      <trkpt lat="43.71126" lon="6.80477">
        <ele>635</ele>
        <time>2019-10-03T08:39:26Z</time>
      </trkpt>
      <trkpt lat="43.71051" lon="6.80474">
        <ele>631</ele>
        <time>2019-10-03T08:39:44Z</time>
      </trkpt>
      <trkpt lat="43.71038" lon="6.80505">
        <ele>622</ele>
        <time>2019-10-03T08:39:50Z</time>
      </trkpt>
      <trkpt lat="43.7107" lon="6.80582">
        <ele>604</ele>
        <time>2019-10-03T08:40:05Z</time>
      </trkpt>
      <trkpt lat="43.71147" lon="6.8058">
        <ele>601</ele>
        <time>2019-10-03T08:40:23Z</time>
      </trkpt>
      <trkpt lat="43.71192" lon="6.80542">
        <ele>614</ele>
        <time>2019-10-03T08:40:35Z</time>
      </trkpt>
      <trkpt lat="43.71169" lon="6.80581">
        <ele>599</ele>
        <time>2019-10-03T08:40:43Z</time>
      </trkpt>
      <trkpt lat="43.7118" lon="6.80621">
        <ele>598</ele>
        <time>2019-10-03T08:40:51Z</time>
      </trkpt>
      <trkpt lat="43.71132" lon="6.80751">
        <ele>603</ele>
        <time>2019-10-03T08:41:15Z</time>
      </trkpt>
      <trkpt lat="43.70971" lon="6.80722">
        <ele>596</ele>
        <time>2019-10-03T08:41:53Z</time>
      </trkpt>
      <trkpt lat="43.7072" lon="6.80857">
        <ele>623</ele>
        <time>2019-10-03T08:42:56Z</time>
      </trkpt>
      <trkpt lat="43.70555" lon="6.80785">
        <ele>624</ele>
        <time>2019-10-03T08:43:37Z</time>
      </trkpt>
      <trkpt lat="43.70457" lon="6.80527">
        <ele>596</ele>
        <time>2019-10-03T08:44:26Z</time>
      </trkpt>
      <trkpt lat="43.70386" lon="6.80598">
        <ele>629</ele>
        <time>2019-10-03T08:44:46Z</time>
      </trkpt>
      <trkpt lat="43.70294" lon="6.80284">
        <ele>596</ele>
        <time>2019-10-03T08:45:43Z</time>
      </trkpt>
      <trkpt lat="43.70212" lon="6.80287">
        <ele>621</ele>
        <time>2019-10-03T08:46:03Z</time>
      </trkpt>
      <trkpt lat="43.70129" lon="6.80115">
        <ele>594</ele>
        <time>2019-10-03T08:46:37Z</time>
      </trkpt>
      <trkpt lat="43.69978" lon="6.80108">
        <ele>606</ele>
        <time>2019-10-03T08:47:13Z</time>
      </trkpt>
      <trkpt lat="43.69823" lon="6.79981">
        <ele>598</ele>
        <time>2019-10-03T08:47:55Z</time>
      </trkpt>
      <trkpt lat="43.69783" lon="6.79925">
        <ele>576</ele>
        <time>2019-10-03T08:48:08Z</time>
      </trkpt>
      <trkpt lat="43.69744" lon="6.79914">
        <ele>568</ele>
        <time>2019-10-03T08:48:17Z</time>
      </trkpt>
      <trkpt lat="43.69711" lon="6.79948">
        <ele>573</ele>
        <time>2019-10-03T08:48:27Z</time>
      </trkpt>
      <trkpt lat="43.69672" lon="6.79896">
        <ele>570</ele>
        <time>2019-10-03T08:48:40Z</time>
      </trkpt>
      <trkpt lat="43.69564" lon="6.79851">
        <ele>609</ele>
        <time>2019-10-03T08:49:06Z</time>
      </trkpt>
      <trkpt lat="43.69454" lon="6.8023">
        <ele>611</ele>
        <time>2019-10-03T08:50:15Z</time>
      </trkpt>
      <trkpt lat="43.69405" lon="6.80495">
        <ele>597</ele>
        <time>2019-10-03T08:51:01Z</time>
      </trkpt>
      <trkpt lat="43.69359" lon="6.80549">
        <ele>604</ele>
        <time>2019-10-03T08:51:15Z</time>
      </trkpt>
      <trkpt lat="43.69359" lon="6.80604">
        <ele>601</ele>
        <time>2019-10-03T08:51:25Z</time>
      </trkpt>
      <trkpt lat="43.69331" lon="6.80692">
        <ele>600</ele>
        <time>2019-10-03T08:51:41Z</time>
      </trkpt>
      <trkpt lat="43.69402" lon="6.80863">
        <ele>606</ele>
        <time>2019-10-03T08:52:14Z</time>
      </trkpt>
      <trkpt lat="43.69349" lon="6.80979">
        <ele>608</ele>
        <time>2019-10-03T08:52:37Z</time>
      </trkpt>
      <trkpt lat="43.69305" lon="6.81117">
        <ele>611</ele>
        <time>2019-10-03T08:53:03Z</time>
      </trkpt>
      <trkpt lat="43.69388" lon="6.81281">
        <ele>624</ele>
        <time>2019-10-03T08:53:36Z</time>
      </trkpt>
      <trkpt lat="43.69365" lon="6.81286">
        <ele>620</ele>
        <time>2019-10-03T08:53:42Z</time>
      </trkpt>
      <trkpt lat="43.69284" lon="6.81204">
        <ele>611</ele>
        <time>2019-10-03T08:54:05Z</time>
      </trkpt>
      <trkpt lat="43.69207" lon="6.81299">
        <ele>617</ele>
        <time>2019-10-03T08:54:29Z</time>
      </trkpt>
      <trkpt lat="43.69173" lon="6.81315">
        <ele>620</ele>
        <time>2019-10-03T08:54:38Z</time>
      </trkpt>
      <trkpt lat="43.69161" lon="6.81345">
        <ele>621</ele>
        <time>2019-10-03T08:54:44Z</time>
      </trkpt>
      <trkpt lat="43.6913" lon="6.81353">
        <ele>621</ele>
        <time>2019-10-03T08:54:51Z</time>
      </trkpt>
      <trkpt lat="43.69122" lon="6.81255">
        <ele>620</ele>
        <time>2019-10-03T08:55:08Z</time>
      </trkpt>
      <trkpt lat="43.69097" lon="6.81199">
        <ele>619</ele>
        <time>2019-10-03T08:55:19Z</time>
      </trkpt>
      <trkpt lat="43.69078" lon="6.812">
        <ele>620</ele>
        <time>2019-10-03T08:55:23Z</time>
      </trkpt>
      <trkpt lat="43.69075" lon="6.81218">
        <ele>620</ele>
        <time>2019-10-03T08:55:26Z</time>
      </trkpt>
      <trkpt lat="43.69051" lon="6.81197">
        <ele>621</ele>
        <time>2019-10-03T08:55:33Z</time>
      </trkpt>
      <trkpt lat="43.69023" lon="6.81201">
        <ele>622</ele>
        <time>2019-10-03T08:55:40Z</time>
      </trkpt>
      <trkpt lat="43.68951" lon="6.81293">
        <ele>626</ele>
        <time>2019-10-03T08:56:02Z</time>
      </trkpt>
      <trkpt lat="43.68901" lon="6.81239">
        <ele>630</ele>
        <time>2019-10-03T08:56:17Z</time>
      </trkpt>
      <trkpt lat="43.68881" lon="6.81018">
        <ele>640</ele>
        <time>2019-10-03T08:56:55Z</time>
      </trkpt>
      <trkpt lat="43.68878" lon="6.8093">
        <ele>642</ele>
        <time>2019-10-03T08:57:10Z</time>
      </trkpt>
      <trkpt lat="43.68856" lon="6.80858">
        <ele>644</ele>
        <time>2019-10-03T08:57:23Z</time>
      </trkpt>
      <trkpt lat="43.68824" lon="6.80858">
        <ele>647</ele>
        <time>2019-10-03T08:57:30Z</time>
      </trkpt>
      <trkpt lat="43.68802" lon="6.80866">
        <ele>650</ele>
        <time>2019-10-03T08:57:36Z</time>
      </trkpt>
      <trkpt lat="43.68783" lon="6.80906">
        <ele>653</ele>
        <time>2019-10-03T08:57:44Z</time>
      </trkpt>
      <trkpt lat="43.68783" lon="6.80945">
        <ele>654</ele>
        <time>2019-10-03T08:57:50Z</time>
      </trkpt>
      <trkpt lat="43.68699" lon="6.81034">
        <ele>666</ele>
        <time>2019-10-03T08:58:15Z</time>
      </trkpt>
      <trkpt lat="43.68609" lon="6.8116">
        <ele>671</ele>
        <time>2019-10-03T08:58:45Z</time>
      </trkpt>
      <trkpt lat="43.68479" lon="6.81184">
        <ele>680</ele>
        <time>2019-10-03T08:59:16Z</time>
      </trkpt>
      <trkpt lat="43.68443" lon="6.81172">
        <ele>683</ele>
        <time>2019-10-03T08:59:24Z</time>
      </trkpt>
      <trkpt lat="43.68402" lon="6.81263">
        <ele>687</ele>
        <time>2019-10-03T08:59:42Z</time>
      </trkpt>
      <trkpt lat="43.68382" lon="6.81304">
        <ele>689</ele>
        <time>2019-10-03T08:59:51Z</time>
      </trkpt>
      <trkpt lat="43.68309" lon="6.8134">
        <ele>693</ele>
        <time>2019-10-03T09:00:09Z</time>
      </trkpt>
      <trkpt lat="43.68186" lon="6.81322">
        <ele>697</ele>
        <time>2019-10-03T09:00:38Z</time>
      </trkpt>
      <trkpt lat="43.6813" lon="6.81222">
        <ele>693</ele>
        <time>2019-10-03T09:00:59Z</time>
      </trkpt>
      <trkpt lat="43.68094" lon="6.81229">
        <ele>694</ele>
        <time>2019-10-03T09:01:08Z</time>
      </trkpt>
      <trkpt lat="43.68096" lon="6.81295">
        <ele>696</ele>
        <time>2019-10-03T09:01:19Z</time>
      </trkpt>
      <trkpt lat="43.67989" lon="6.8158">
        <ele>722</ele>
        <time>2019-10-03T09:02:13Z</time>
      </trkpt>
      <trkpt lat="43.67966" lon="6.81837">
        <ele>738</ele>
        <time>2019-10-03T09:02:57Z</time>
      </trkpt>
      <trkpt lat="43.67977" lon="6.81891">
        <ele>743</ele>
        <time>2019-10-03T09:03:06Z</time>
      </trkpt>
      <trkpt lat="43.67916" lon="6.81967">
        <ele>750</ele>
        <time>2019-10-03T09:03:25Z</time>
      </trkpt>
      <trkpt lat="43.67874" lon="6.82053">
        <ele>753</ele>
        <time>2019-10-03T09:03:43Z</time>
      </trkpt>
      <trkpt lat="43.67893" lon="6.8218">
        <ele>761</ele>
        <time>2019-10-03T09:04:05Z</time>
      </trkpt>
      <trkpt lat="43.67849" lon="6.82399">
        <ele>759</ele>
        <time>2019-10-03T09:04:43Z</time>
      </trkpt>
      <trkpt lat="43.67937" lon="6.82457">
        <ele>759</ele>
        <time>2019-10-03T09:05:06Z</time>
      </trkpt>
      <trkpt lat="43.67967" lon="6.82537">
        <ele>757</ele>
        <time>2019-10-03T09:05:21Z</time>
      </trkpt>
      <trkpt lat="43.67717" lon="6.82704">
        <ele>727</ele>
        <time>2019-10-03T09:06:26Z</time>
      </trkpt>
      <trkpt lat="43.67648" lon="6.82783">
        <ele>730</ele>
        <time>2019-10-03T09:06:47Z</time>
      </trkpt>
      <trkpt lat="43.67648" lon="6.82863">
        <ele>730</ele>
        <time>2019-10-03T09:07:00Z</time>
      </trkpt>
      <trkpt lat="43.6762" lon="6.82914">
        <ele>729</ele>
        <time>2019-10-03T09:07:11Z</time>
      </trkpt>
      <trkpt lat="43.67592" lon="6.82876">
        <ele>728</ele>
        <time>2019-10-03T09:07:20Z</time>
      </trkpt>
      <trkpt lat="43.67556" lon="6.82897">
        <ele>725</ele>
        <time>2019-10-03T09:07:30Z</time>
      </trkpt>
      <trkpt lat="43.67523" lon="6.83071">
        <ele>716</ele>
        <time>2019-10-03T09:08:00Z</time>
      </trkpt>
      <trkpt lat="43.6748" lon="6.83148">
        <ele>711</ele>
        <time>2019-10-03T09:08:16Z</time>
      </trkpt>
      <trkpt lat="43.67287" lon="6.83291">
        <ele>687</ele>
        <time>2019-10-03T09:09:07Z</time>
      </trkpt>
      <trkpt lat="43.67245" lon="6.83244">
        <ele>682</ele>
        <time>2019-10-03T09:09:20Z</time>
      </trkpt>
      <trkpt lat="43.67232" lon="6.83309">
        <ele>679</ele>
        <time>2019-10-03T09:09:31Z</time>
      </trkpt>
      <trkpt lat="43.67148" lon="6.8314">
        <ele>658</ele>
        <time>2019-10-03T09:10:06Z</time>
      </trkpt>
      <trkpt lat="43.67146" lon="6.83079">
        <ele>656</ele>
        <time>2019-10-03T09:10:16Z</time>
      </trkpt>
      <trkpt lat="43.67122" lon="6.83097">
        <ele>650</ele>
        <time>2019-10-03T09:10:23Z</time>
      </trkpt>
      <trkpt lat="43.67097" lon="6.83182">
        <ele>645</ele>
        <time>2019-10-03T09:10:38Z</time>
      </trkpt>
      <trkpt lat="43.67101" lon="6.83219">
        <ele>647</ele>
        <time>2019-10-03T09:10:45Z</time>
      </trkpt>
      <trkpt lat="43.67065" lon="6.83263">
        <ele>640</ele>
        <time>2019-10-03T09:10:56Z</time>
      </trkpt>
      <trkpt lat="43.67047" lon="6.83322">
        <ele>639</ele>
        <time>2019-10-03T09:11:07Z</time>
      </trkpt>
      <trkpt lat="43.66997" lon="6.83345">
        <ele>630</ele>
        <time>2019-10-03T09:11:19Z</time>
      </trkpt>
      <trkpt lat="43.66934" lon="6.83294">
        <ele>617</ele>
        <time>2019-10-03T09:11:36Z</time>
      </trkpt>
      <trkpt lat="43.66883" lon="6.83317">
        <ele>611</ele>
        <time>2019-10-03T09:11:49Z</time>
      </trkpt>
      <trkpt lat="43.6675" lon="6.83419">
        <ele>600</ele>
        <time>2019-10-03T09:12:24Z</time>
      </trkpt>
      <trkpt lat="43.66718" lon="6.83404">
        <ele>595</ele>
        <time>2019-10-03T09:12:32Z</time>
      </trkpt>
      <trkpt lat="43.66733" lon="6.83324">
        <ele>590</ele>
        <time>2019-10-03T09:12:46Z</time>
      </trkpt>
      <trkpt lat="43.66735" lon="6.83248">
        <ele>584</ele>
        <time>2019-10-03T09:12:59Z</time>
      </trkpt>
      <trkpt lat="43.66669" lon="6.83288">
        <ele>581</ele>
        <time>2019-10-03T09:13:16Z</time>
      </trkpt>
      <trkpt lat="43.66627" lon="6.83194">
        <ele>572</ele>
        <time>2019-10-03T09:13:34Z</time>
      </trkpt>
      <trkpt lat="43.66524" lon="6.83225">
        <ele>569</ele>
        <time>2019-10-03T09:13:59Z</time>
      </trkpt>
      <trkpt lat="43.66484" lon="6.83299">
        <ele>570</ele>
        <time>2019-10-03T09:14:14Z</time>
      </trkpt>
      <trkpt lat="43.66424" lon="6.8327">
        <ele>572</ele>
        <time>2019-10-03T09:14:29Z</time>
      </trkpt>
      <trkpt lat="43.66301" lon="6.837">
        <ele>580</ele>
        <time>2019-10-03T09:15:47Z</time>
      </trkpt>
      <trkpt lat="43.66186" lon="6.83638">
        <ele>591</ele>
        <time>2019-10-03T09:16:16Z</time>
      </trkpt>
      <trkpt lat="43.66249" lon="6.82732">
        <ele>649</ele>
        <time>2019-10-03T09:18:50Z</time>
      </trkpt>
      <trkpt lat="43.66202" lon="6.82818">
        <ele>642</ele>
        <time>2019-10-03T09:19:08Z</time>
      </trkpt>
      <trkpt lat="43.6609" lon="6.82984">
        <ele>636</ele>
        <time>2019-10-03T09:19:47Z</time>
      </trkpt>
      <trkpt lat="43.66014" lon="6.83202">
        <ele>619</ele>
        <time>2019-10-03T09:20:27Z</time>
      </trkpt>
      <trkpt lat="43.65886" lon="6.83352">
        <ele>607</ele>
        <time>2019-10-03T09:21:07Z</time>
      </trkpt>
      <trkpt lat="43.65764" lon="6.83258">
        <ele>602</ele>
        <time>2019-10-03T09:21:39Z</time>
      </trkpt>
      <trkpt lat="43.65722" lon="6.83147">
        <ele>595</ele>
        <time>2019-10-03T09:22:00Z</time>
      </trkpt>
      <trkpt lat="43.65623" lon="6.83248">
        <ele>598</ele>
        <time>2019-10-03T09:22:29Z</time>
      </trkpt>
      <trkpt lat="43.65584" lon="6.83318">
        <ele>599</ele>
        <time>2019-10-03T09:22:44Z</time>
      </trkpt>
      <trkpt lat="43.65534" lon="6.83282">
        <ele>593</ele>
        <time>2019-10-03T09:22:57Z</time>
      </trkpt>
      <trkpt lat="43.65584" lon="6.83217">
        <ele>592</ele>
        <time>2019-10-03T09:23:13Z</time>
      </trkpt>
      <trkpt lat="43.65563" lon="6.83174">
        <ele>583</ele>
        <time>2019-10-03T09:23:22Z</time>
      </trkpt>
      <trkpt lat="43.65545" lon="6.83116">
        <ele>570</ele>
        <time>2019-10-03T09:23:33Z</time>
      </trkpt>
      <trkpt lat="43.65531" lon="6.83072">
        <ele>560</ele>
        <time>2019-10-03T09:23:41Z</time>
      </trkpt>
      <trkpt lat="43.65362" lon="6.83228">
        <ele>553</ele>
        <time>2019-10-03T09:24:28Z</time>
      </trkpt>
      <trkpt lat="43.65231" lon="6.83314">
        <ele>542</ele>
        <time>2019-10-03T09:25:02Z</time>
      </trkpt>
      <trkpt lat="43.65174" lon="6.83358">
        <ele>540</ele>
        <time>2019-10-03T09:25:17Z</time>
      </trkpt>
      <trkpt lat="43.65122" lon="6.8335">
        <ele>534</ele>
        <time>2019-10-03T09:25:30Z</time>
      </trkpt>
      <trkpt lat="43.65064" lon="6.83318">
        <ele>525</ele>
        <time>2019-10-03T09:25:44Z</time>
      </trkpt>
      <trkpt lat="43.65061" lon="6.83246">
        <ele>519</ele>
        <time>2019-10-03T09:25:56Z</time>
      </trkpt>
      <trkpt lat="43.65048" lon="6.83098">
        <ele>511</ele>
        <time>2019-10-03T09:26:22Z</time>
      </trkpt>
      <trkpt lat="43.65106" lon="6.83029">
        <ele>505</ele>
        <time>2019-10-03T09:26:39Z</time>
      </trkpt>
      <trkpt lat="43.65028" lon="6.82953">
        <ele>500</ele>
        <time>2019-10-03T09:27:02Z</time>
      </trkpt>
      <trkpt lat="43.6503" lon="6.82885">
        <ele>491</ele>
        <time>2019-10-03T09:27:13Z</time>
      </trkpt>
      <trkpt lat="43.64957" lon="6.82784">
        <ele>479</ele>
        <time>2019-10-03T09:27:37Z</time>
      </trkpt>
      <trkpt lat="43.64988" lon="6.82721">
        <ele>473</ele>
        <time>2019-10-03T09:27:50Z</time>
      </trkpt>
      <trkpt lat="43.64985" lon="6.82706">
        <ele>472</ele>
        <time>2019-10-03T09:27:53Z</time>
      </trkpt>
      <trkpt lat="43.64946" lon="6.82714">
        <ele>470</ele>
        <time>2019-10-03T09:28:02Z</time>
      </trkpt>
      <trkpt lat="43.64924" lon="6.82633">
        <ele>461</ele>
        <time>2019-10-03T09:28:17Z</time>
      </trkpt>
      <trkpt lat="43.64898" lon="6.82603">
        <ele>457</ele>
        <time>2019-10-03T09:28:25Z</time>
      </trkpt>
      <trkpt lat="43.64867" lon="6.82457">
        <ele>450</ele>
        <time>2019-10-03T09:28:50Z</time>
      </trkpt>
      <trkpt lat="43.64807" lon="6.82296">
        <ele>450</ele>
        <time>2019-10-03T09:29:21Z</time>
      </trkpt>
      <trkpt lat="43.64757" lon="6.82403">
        <ele>445</ele>
        <time>2019-10-03T09:29:42Z</time>
      </trkpt>
      <trkpt lat="43.64659" lon="6.82466">
        <ele>442</ele>
        <time>2019-10-03T09:30:08Z</time>
      </trkpt>
      <trkpt lat="43.64616" lon="6.825">
        <ele>442</ele>
        <time>2019-10-03T09:30:19Z</time>
      </trkpt>
      <trkpt lat="43.64504" lon="6.82642">
        <ele>437</ele>
        <time>2019-10-03T09:30:55Z</time>
      </trkpt>
      <trkpt lat="43.64396" lon="6.82808">
        <ele>438</ele>
        <time>2019-10-03T09:31:33Z</time>
      </trkpt>
      <trkpt lat="43.64375" lon="6.82748">
        <ele>434</ele>
        <time>2019-10-03T09:31:44Z</time>
      </trkpt>
      <trkpt lat="43.64271" lon="6.8283">
        <ele>434</ele>
        <time>2019-10-03T09:32:12Z</time>
      </trkpt>
      <trkpt lat="43.6417" lon="6.82903">
        <ele>429</ele>
        <time>2019-10-03T09:32:38Z</time>
      </trkpt>
      <trkpt lat="43.64078" lon="6.82893">
        <ele>428</ele>
        <time>2019-10-03T09:33:00Z</time>
      </trkpt>
      <trkpt lat="43.6401" lon="6.82826">
        <ele>422</ele>
        <time>2019-10-03T09:33:19Z</time>
      </trkpt>
      <trkpt lat="43.6394" lon="6.82749">
        <ele>421</ele>
        <time>2019-10-03T09:33:40Z</time>
      </trkpt>
      <trkpt lat="43.63893" lon="6.82732">
        <ele>422</ele>
        <time>2019-10-03T09:33:52Z</time>
      </trkpt>
      <trkpt lat="43.63826" lon="6.82727">
        <ele>423</ele>
        <time>2019-10-03T09:34:07Z</time>
      </trkpt>
      <trkpt lat="43.6373" lon="6.82682">
        <ele>411</ele>
        <time>2019-10-03T09:34:31Z</time>
      </trkpt>
      <trkpt lat="43.63612" lon="6.82714">
        <ele>402</ele>
        <time>2019-10-03T09:34:59Z</time>
      </trkpt>
      <trkpt lat="43.63553" lon="6.82762">
        <ele>397</ele>
        <time>2019-10-03T09:35:15Z</time>
      </trkpt>
      <trkpt lat="43.63486" lon="6.8282">
        <ele>388</ele>
        <time>2019-10-03T09:35:34Z</time>
      </trkpt>
      <trkpt lat="43.63463" lon="6.82759">
        <ele>381</ele>
        <time>2019-10-03T09:35:45Z</time>
      </trkpt>
      <trkpt lat="43.63401" lon="6.82764">
        <ele>377</ele>
        <time>2019-10-03T09:36:00Z</time>
      </trkpt>
      <trkpt lat="43.63286" lon="6.82941">
        <ele>380</ele>
        <time>2019-10-03T09:36:40Z</time>
      </trkpt>
      <trkpt lat="43.63275" lon="6.83006">
        <ele>382</ele>
        <time>2019-10-03T09:36:51Z</time>
      </trkpt>
      <trkpt lat="43.63256" lon="6.83002">
        <ele>382</ele>
        <time>2019-10-03T09:36:56Z</time>
      </trkpt>
      <trkpt lat="43.63108" lon="6.83112">
        <ele>375</ele>
        <time>2019-10-03T09:37:35Z</time>
      </trkpt>
      <trkpt lat="43.63046" lon="6.83058">
        <ele>368</ele>
        <time>2019-10-03T09:37:52Z</time>
      </trkpt>
      <trkpt lat="43.62946" lon="6.82904">
        <ele>346</ele>
        <time>2019-10-03T09:38:27Z</time>
      </trkpt>
      <trkpt lat="43.62956" lon="6.82758">
        <ele>349</ele>
        <time>2019-10-03T09:38:52Z</time>
      </trkpt>
      <trkpt lat="43.62931" lon="6.82706">
        <ele>335</ele>
        <time>2019-10-03T09:39:02Z</time>
      </trkpt>
      <trkpt lat="43.62913" lon="6.82733">
        <ele>331</ele>
        <time>2019-10-03T09:39:09Z</time>
      </trkpt>
      <trkpt lat="43.62888" lon="6.82729">
        <ele>318</ele>
        <time>2019-10-03T09:39:14Z</time>
      </trkpt>
      <trkpt lat="43.62882" lon="6.82762">
        <ele>318</ele>
        <time>2019-10-03T09:39:20Z</time>
      </trkpt>
      <trkpt lat="43.62854" lon="6.82761">
        <ele>304</ele>
        <time>2019-10-03T09:39:27Z</time>
      </trkpt>
      <trkpt lat="43.6284" lon="6.8279">
        <ele>297</ele>
        <time>2019-10-03T09:39:33Z</time>
      </trkpt>
      <trkpt lat="43.62841" lon="6.82853">
        <ele>298</ele>
        <time>2019-10-03T09:39:43Z</time>
      </trkpt>
      <trkpt lat="43.62818" lon="6.82883">
        <ele>286</ele>
        <time>2019-10-03T09:39:51Z</time>
      </trkpt>
      <trkpt lat="43.62825" lon="6.83065">
        <ele>275</ele>
        <time>2019-10-03T09:40:21Z</time>
      </trkpt>
      <trkpt lat="43.62789" lon="6.83068">
        <ele>260</ele>
        <time>2019-10-03T09:40:30Z</time>
      </trkpt>
      <trkpt lat="43.62775" lon="6.83159">
        <ele>245</ele>
        <time>2019-10-03T09:40:46Z</time>
      </trkpt>
      <trkpt lat="43.62781" lon="6.8334">
        <ele>233</ele>
        <time>2019-10-03T09:41:16Z</time>
      </trkpt>
      <trkpt lat="43.62814" lon="6.83407">
        <ele>231</ele>
        <time>2019-10-03T09:41:30Z</time>
      </trkpt>
      <trkpt lat="43.63049" lon="6.83642">
        <ele>236</ele>
        <time>2019-10-03T09:42:38Z</time>
      </trkpt>
      <trkpt lat="43.6314" lon="6.83765">
        <ele>233</ele>
        <time>2019-10-03T09:43:07Z</time>
      </trkpt>
      <trkpt lat="43.63195" lon="6.83826">
        <ele>235</ele>
        <time>2019-10-03T09:43:24Z</time>
      </trkpt>
      <trkpt lat="43.63284" lon="6.83985">
        <ele>239</ele>
        <time>2019-10-03T09:43:58Z</time>
      </trkpt>
      <trkpt lat="43.63258" lon="6.84071">
        <ele>231</ele>
        <time>2019-10-03T09:44:14Z</time>
      </trkpt>
      <trkpt lat="43.6331" lon="6.84165">
        <ele>241</ele>
        <time>2019-10-03T09:44:34Z</time>
      </trkpt>
      <trkpt lat="43.63179" lon="6.84191">
        <ele>234</ele>
        <time>2019-10-03T09:45:04Z</time>
      </trkpt>
      <trkpt lat="43.63122" lon="6.84237">
        <ele>240</ele>
        <time>2019-10-03T09:45:20Z</time>
      </trkpt>
      <trkpt lat="43.63088" lon="6.84191">
        <ele>231</ele>
        <time>2019-10-03T09:45:31Z</time>
      </trkpt>
      <trkpt lat="43.63077" lon="6.84295">
        <ele>243</ele>
        <time>2019-10-03T09:45:49Z</time>
      </trkpt>
      <trkpt lat="43.63041" lon="6.84382">
        <ele>243</ele>
        <time>2019-10-03T09:46:06Z</time>
      </trkpt>
      <trkpt lat="43.63175" lon="6.84518">
        <ele>235</ele>
        <time>2019-10-03T09:46:45Z</time>
      </trkpt>
      <trkpt lat="43.63246" lon="6.84626">
        <ele>236</ele>
        <time>2019-10-03T09:47:09Z</time>
      </trkpt>
      <trkpt lat="43.63186" lon="6.84738">
        <ele>232</ele>
        <time>2019-10-03T09:47:33Z</time>
      </trkpt>
      <trkpt lat="43.63303" lon="6.84987">
        <ele>236</ele>
        <time>2019-10-03T09:48:23Z</time>
      </trkpt>
      <trkpt lat="43.63233" lon="6.84987">
        <ele>232</ele>
        <time>2019-10-03T09:48:39Z</time>
      </trkpt>
      <trkpt lat="43.63191" lon="6.8494">
        <ele>231</ele>
        <time>2019-10-03T09:48:52Z</time>
      </trkpt>
      <trkpt lat="43.63115" lon="6.84854">
        <ele>224</ele>
        <time>2019-10-03T09:49:15Z</time>
      </trkpt>
      <trkpt lat="43.63021" lon="6.84835">
        <ele>215</ele>
        <time>2019-10-03T09:49:37Z</time>
      </trkpt>
      <trkpt lat="43.62888" lon="6.84958">
        <ele>218</ele>
        <time>2019-10-03T09:50:14Z</time>
      </trkpt>
      <trkpt lat="43.62815" lon="6.85164">
        <ele>232</ele>
        <time>2019-10-03T09:50:53Z</time>
      </trkpt>
      <trkpt lat="43.62802" lon="6.85315">
        <ele>245</ele>
        <time>2019-10-03T09:51:19Z</time>
      </trkpt>
      <trkpt lat="43.62636" lon="6.85502">
        <ele>240</ele>
        <time>2019-10-03T09:52:09Z</time>
      </trkpt>
      <trkpt lat="43.62607" lon="6.85448">
        <ele>229</ele>
        <time>2019-10-03T09:52:20Z</time>
      </trkpt>
      <trkpt lat="43.62581" lon="6.85397">
        <ele>220</ele>
        <time>2019-10-03T09:52:31Z</time>
      </trkpt>
      <trkpt lat="43.62555" lon="6.85325">
        <ele>205</ele>
        <time>2019-10-03T09:52:44Z</time>
      </trkpt>
      <trkpt lat="43.62521" lon="6.85289">
        <ele>192</ele>
        <time>2019-10-03T09:52:54Z</time>
      </trkpt>
      <trkpt lat="43.62471" lon="6.85354">
        <ele>193</ele>
        <time>2019-10-03T09:53:10Z</time>
      </trkpt>
      <trkpt lat="43.62453" lon="6.85455">
        <ele>196</ele>
        <time>2019-10-03T09:53:28Z</time>
      </trkpt>
      <trkpt lat="43.62471" lon="6.85488">
        <ele>200</ele>
        <time>2019-10-03T09:53:35Z</time>
      </trkpt>
      <trkpt lat="43.62398" lon="6.85527">
        <ele>198</ele>
        <time>2019-10-03T09:53:53Z</time>
      </trkpt>
      <trkpt lat="43.62375" lon="6.85509">
        <ele>200</ele>
        <time>2019-10-03T09:53:59Z</time>
      </trkpt>
      <trkpt lat="43.62338" lon="6.85361">
        <ele>174</ele>
        <time>2019-10-03T09:54:26Z</time>
      </trkpt>
      <trkpt lat="43.62215" lon="6.85293">
        <ele>173</ele>
        <time>2019-10-03T09:54:57Z</time>
      </trkpt>
      <trkpt lat="43.62158" lon="6.85156">
        <ele>157</ele>
        <time>2019-10-03T09:55:24Z</time>
      </trkpt>
      <trkpt lat="43.62111" lon="6.85235">
        <ele>162</ele>
        <time>2019-10-03T09:55:41Z</time>
      </trkpt>
      <trkpt lat="43.62027" lon="6.85213">
        <ele>167</ele>
        <time>2019-10-03T09:56:01Z</time>
      </trkpt>
      <trkpt lat="43.61967" lon="6.85076">
        <ele>150</ele>
        <time>2019-10-03T09:56:28Z</time>
      </trkpt>
      <trkpt lat="43.61894" lon="6.85069">
        <ele>152</ele>
        <time>2019-10-03T09:56:45Z</time>
      </trkpt>
      <trkpt lat="43.61868" lon="6.85008">
        <ele>139</ele>
        <time>2019-10-03T09:56:57Z</time>
      </trkpt>
      <trkpt lat="43.61722" lon="6.85019">
        <ele>138</ele>
        <time>2019-10-03T09:57:31Z</time>
      </trkpt>
      <trkpt lat="43.61604" lon="6.84936">
        <ele>124</ele>
        <time>2019-10-03T09:58:02Z</time>
      </trkpt>
      <trkpt lat="43.61505" lon="6.84925">
        <ele>128</ele>
        <time>2019-10-03T09:58:25Z</time>
      </trkpt>
      <trkpt lat="43.61486" lon="6.84915">
        <ele>133</ele>
        <time>2019-10-03T09:58:30Z</time>
      </trkpt>
      <trkpt lat="43.61462" lon="6.84792">
        <ele>130</ele>
        <time>2019-10-03T09:58:52Z</time>
      </trkpt>
      <trkpt lat="43.61475" lon="6.84698">
        <ele>109</ele>
        <time>2019-10-03T09:59:08Z</time>
      </trkpt>
      <trkpt lat="43.61462" lon="6.84651">
        <ele>104</ele>
        <time>2019-10-03T09:59:16Z</time>
      </trkpt>
      <trkpt lat="43.61381" lon="6.84586">
        <ele>99</ele>
        <time>2019-10-03T09:59:38Z</time>
      </trkpt>
      <trkpt lat="43.61355" lon="6.84503">
        <ele>90</ele>
        <time>2019-10-03T09:59:53Z</time>
      </trkpt>
      <trkpt lat="43.61308" lon="6.84464">
        <ele>83</ele>
        <time>2019-10-03T10:00:06Z</time>
      </trkpt>
      <trkpt lat="43.61292" lon="6.84395">
        <ele>85</ele>
        <time>2019-10-03T10:00:18Z</time>
      </trkpt>
      <trkpt lat="43.61193" lon="6.84428">
        <ele>85</ele>
        <time>2019-10-03T10:00:42Z</time>
      </trkpt>
      <trkpt lat="43.61065" lon="6.84515">
        <ele>72</ele>
        <time>2019-10-03T10:01:16Z</time>
      </trkpt>
      <trkpt lat="43.60977" lon="6.84479">
        <ele>79</ele>
        <time>2019-10-03T10:01:37Z</time>
      </trkpt>
      <trkpt lat="43.6091" lon="6.84512">
        <ele>74</ele>
        <time>2019-10-03T10:01:54Z</time>
      </trkpt>
      <trkpt lat="43.60729" lon="6.84559">
        <ele>77</ele>
        <time>2019-10-03T10:02:37Z</time>
      </trkpt>
      <trkpt lat="43.60572" lon="6.84418">
        <ele>85</ele>
        <time>2019-10-03T10:03:20Z</time>
      </trkpt>
      <trkpt lat="43.60518" lon="6.84461">
        <ele>94</ele>
        <time>2019-10-03T10:03:35Z</time>
      </trkpt>
      <trkpt lat="43.60457" lon="6.8432">
        <ele>88</ele>
        <time>2019-10-03T10:04:03Z</time>
      </trkpt>
      <trkpt lat="43.60457" lon="6.84252">
        <ele>82</ele>
        <time>2019-10-03T10:04:14Z</time>
      </trkpt>
      <trkpt lat="43.60298" lon="6.84223">
        <ele>95</ele>
        <time>2019-10-03T10:04:52Z</time>
      </trkpt>
      <trkpt lat="43.60209" lon="6.84249">
        <ele>99</ele>
        <time>2019-10-03T10:05:13Z</time>
      </trkpt>
      <trkpt lat="43.60127" lon="6.84232">
        <ele>87</ele>
        <time>2019-10-03T10:05:32Z</time>
      </trkpt>
      <trkpt lat="43.60135" lon="6.84328">
        <ele>97</ele>
        <time>2019-10-03T10:05:49Z</time>
      </trkpt>
      <trkpt lat="43.60098" lon="6.84385">
        <ele>95</ele>
        <time>2019-10-03T10:06:02Z</time>
      </trkpt>
      <trkpt lat="43.60109" lon="6.84479">
        <ele>94</ele>
        <time>2019-10-03T10:06:18Z</time>
      </trkpt>
      <trkpt lat="43.60063" lon="6.84492">
        <ele>90</ele>
        <time>2019-10-03T10:06:29Z</time>
      </trkpt>
      <trkpt lat="43.59995" lon="6.84447">
        <ele>102</ele>
        <time>2019-10-03T10:06:46Z</time>
      </trkpt>
      <trkpt lat="43.5994" lon="6.8436">
        <ele>113</ele>
        <time>2019-10-03T10:07:06Z</time>
      </trkpt>
      <trkpt lat="43.59913" lon="6.84268">
        <ele>127</ele>
        <time>2019-10-03T10:07:23Z</time>
      </trkpt>
      <trkpt lat="43.59861" lon="6.84169">
        <ele>145</ele>
        <time>2019-10-03T10:07:43Z</time>
      </trkpt>
      <trkpt lat="43.59844" lon="6.84114">
        <ele>151</ele>
        <time>2019-10-03T10:07:53Z</time>
      </trkpt>
      <trkpt lat="43.59793" lon="6.8402">
        <ele>168</ele>
        <time>2019-10-03T10:08:13Z</time>
      </trkpt>
      <trkpt lat="43.59766" lon="6.83952">
        <ele>168</ele>
        <time>2019-10-03T10:08:26Z</time>
      </trkpt>
      <trkpt lat="43.59717" lon="6.83955">
        <ele>176</ele>
        <time>2019-10-03T10:08:38Z</time>
      </trkpt>
      <trkpt lat="43.59658" lon="6.84011">
        <ele>197</ele>
        <time>2019-10-03T10:08:54Z</time>
      </trkpt>
      <trkpt lat="43.59619" lon="6.84052">
        <ele>207</ele>
        <time>2019-10-03T10:09:06Z</time>
      </trkpt>
      <trkpt lat="43.5957" lon="6.8407">
        <ele>209</ele>
        <time>2019-10-03T10:09:18Z</time>
      </trkpt>
      <trkpt lat="43.59519" lon="6.84103">
        <ele>219</ele>
        <time>2019-10-03T10:09:31Z</time>
      </trkpt>
      <trkpt lat="43.59411" lon="6.84152">
        <ele>230</ele>
        <time>2019-10-03T10:09:57Z</time>
      </trkpt>
      <trkpt lat="43.59339" lon="6.84181">
        <ele>233</ele>
        <time>2019-10-03T10:10:15Z</time>
      </trkpt>
      <trkpt lat="43.59289" lon="6.84173">
        <ele>239</ele>
        <time>2019-10-03T10:10:27Z</time>
      </trkpt>
      <trkpt lat="43.59241" lon="6.84126">
        <ele>236</ele>
        <time>2019-10-03T10:10:40Z</time>
      </trkpt>
      <trkpt lat="43.59155" lon="6.84073">
        <ele>242</ele>
        <time>2019-10-03T10:11:02Z</time>
      </trkpt>
      <trkpt lat="43.59101" lon="6.84055">
        <ele>258</ele>
        <time>2019-10-03T10:11:15Z</time>
      </trkpt>
      <trkpt lat="43.59108" lon="6.84009">
        <ele>246</ele>
        <time>2019-10-03T10:11:23Z</time>
      </trkpt>
      <trkpt lat="43.59092" lon="6.83945">
        <ele>248</ele>
        <time>2019-10-03T10:11:35Z</time>
      </trkpt>
      <trkpt lat="43.59081" lon="6.83847">
        <ele>250</ele>
        <time>2019-10-03T10:11:52Z</time>
      </trkpt>
      <trkpt lat="43.59093" lon="6.83794">
        <ele>244</ele>
        <time>2019-10-03T10:12:01Z</time>
      </trkpt>
      <trkpt lat="43.59076" lon="6.83747">
        <ele>259</ele>
        <time>2019-10-03T10:12:10Z</time>
      </trkpt>
      <trkpt lat="43.59095" lon="6.83692">
        <ele>254</ele>
        <time>2019-10-03T10:12:20Z</time>
      </trkpt>
      <trkpt lat="43.59109" lon="6.83627">
        <ele>256</ele>
        <time>2019-10-03T10:12:32Z</time>
      </trkpt>
      <trkpt lat="43.59161" lon="6.8354">
        <ele>241</ele>
        <time>2019-10-03T10:12:51Z</time>
      </trkpt>
      <trkpt lat="43.59193" lon="6.83436">
        <ele>239</ele>
        <time>2019-10-03T10:13:10Z</time>
      </trkpt>
      <trkpt lat="43.59236" lon="6.83367">
        <ele>223</ele>
        <time>2019-10-03T10:13:25Z</time>
      </trkpt>
      <trkpt lat="43.59232" lon="6.83308">
        <ele>223</ele>
        <time>2019-10-03T10:13:35Z</time>
      </trkpt>
      <trkpt lat="43.59121" lon="6.83219">
        <ele>227</ele>
        <time>2019-10-03T10:14:05Z</time>
      </trkpt>
      <trkpt lat="43.5906" lon="6.83184">
        <ele>229</ele>
        <time>2019-10-03T10:14:21Z</time>
      </trkpt>
      <trkpt lat="43.59004" lon="6.83138">
        <ele>226</ele>
        <time>2019-10-03T10:14:36Z</time>
      </trkpt>
      <trkpt lat="43.58985" lon="6.83158">
        <ele>235</ele>
        <time>2019-10-03T10:14:41Z</time>
      </trkpt>
      <trkpt lat="43.58978" lon="6.83111">
        <ele>224</ele>
        <time>2019-10-03T10:14:50Z</time>
      </trkpt>
      <trkpt lat="43.58906" lon="6.83119">
        <ele>244</ele>
        <time>2019-10-03T10:15:06Z</time>
      </trkpt>
      <trkpt lat="43.58882" lon="6.82968">
        <ele>235</ele>
        <time>2019-10-03T10:15:33Z</time>
      </trkpt>
      <trkpt lat="43.58915" lon="6.82914">
        <ele>223</ele>
        <time>2019-10-03T10:15:45Z</time>
      </trkpt>
      <trkpt lat="43.58883" lon="6.82883">
        <ele>218</ele>
        <time>2019-10-03T10:15:54Z</time>
      </trkpt>
      <trkpt lat="43.58845" lon="6.82871">
        <ele>218</ele>
        <time>2019-10-03T10:16:03Z</time>
      </trkpt>
      <trkpt lat="43.58818" lon="6.8284">
        <ele>216</ele>
        <time>2019-10-03T10:16:11Z</time>
      </trkpt>
      <trkpt lat="43.58808" lon="6.82795">
        <ele>207</ele>
        <time>2019-10-03T10:16:19Z</time>
      </trkpt>
      <trkpt lat="43.58785" lon="6.82762">
        <ele>203</ele>
        <time>2019-10-03T10:16:27Z</time>
      </trkpt>
      <trkpt lat="43.5876" lon="6.82672">
        <ele>180</ele>
        <time>2019-10-03T10:16:43Z</time>
      </trkpt>
      <trkpt lat="43.5874" lon="6.82617">
        <ele>170</ele>
        <time>2019-10-03T10:16:53Z</time>
      </trkpt>
      <trkpt lat="43.58767" lon="6.82613">
        <ele>167</ele>
        <time>2019-10-03T10:17:00Z</time>
      </trkpt>
      <trkpt lat="43.58759" lon="6.8258">
        <ele>162</ele>
        <time>2019-10-03T10:17:06Z</time>
      </trkpt>
      <trkpt lat="43.58739" lon="6.82554">
        <ele>163</ele>
        <time>2019-10-03T10:17:12Z</time>
      </trkpt>
      <trkpt lat="43.58767" lon="6.82512">
        <ele>162</ele>
        <time>2019-10-03T10:17:22Z</time>
      </trkpt>
      <trkpt lat="43.58815" lon="6.82443">
        <ele>169</ele>
        <time>2019-10-03T10:17:38Z</time>
      </trkpt>
      <trkpt lat="43.58829" lon="6.82361">
        <ele>176</ele>
        <time>2019-10-03T10:17:52Z</time>
      </trkpt>
      <trkpt lat="43.58801" lon="6.82213">
        <ele>187</ele>
        <time>2019-10-03T10:18:18Z</time>
      </trkpt>
      <trkpt lat="43.58823" lon="6.82113">
        <ele>184</ele>
        <time>2019-10-03T10:18:36Z</time>
      </trkpt>
      <trkpt lat="43.5879" lon="6.82055">
        <ele>184</ele>
        <time>2019-10-03T10:18:48Z</time>
      </trkpt>
      <trkpt lat="43.5871" lon="6.82066">
        <ele>191</ele>
        <time>2019-10-03T10:19:07Z</time>
      </trkpt>
      <trkpt lat="43.58629" lon="6.82113">
        <ele>196</ele>
        <time>2019-10-03T10:19:27Z</time>
      </trkpt>
      <trkpt lat="43.58617" lon="6.82052">
        <ele>200</ele>
        <time>2019-10-03T10:19:38Z</time>
      </trkpt>
      <trkpt lat="43.58581" lon="6.82093">
        <ele>200</ele>
        <time>2019-10-03T10:19:49Z</time>
      </trkpt>
      <trkpt lat="43.58532" lon="6.82108">
        <ele>212</ele>
        <time>2019-10-03T10:20:01Z</time>
      </trkpt>
      <trkpt lat="43.58537" lon="6.82185">
        <ele>207</ele>
        <time>2019-10-03T10:20:14Z</time>
      </trkpt>
      <trkpt lat="43.58479" lon="6.82281">
        <ele>214</ele>
        <time>2019-10-03T10:20:35Z</time>
      </trkpt>
      <trkpt lat="43.58478" lon="6.82357">
        <ele>208</ele>
        <time>2019-10-03T10:20:48Z</time>
      </trkpt>
      <trkpt lat="43.58449" lon="6.82385">
        <ele>208</ele>
        <time>2019-10-03T10:20:56Z</time>
      </trkpt>
      <trkpt lat="43.58406" lon="6.82341">
        <ele>219</ele>
        <time>2019-10-03T10:21:09Z</time>
      </trkpt>
      <trkpt lat="43.5835" lon="6.82329">
        <ele>222</ele>
        <time>2019-10-03T10:21:22Z</time>
      </trkpt>
      <trkpt lat="43.58172" lon="6.82415">
        <ele>203</ele>
        <time>2019-10-03T10:22:06Z</time>
      </trkpt>
      <trkpt lat="43.58145" lon="6.82329">
        <ele>207</ele>
        <time>2019-10-03T10:22:22Z</time>
      </trkpt>
      <trkpt lat="43.5816" lon="6.82248">
        <ele>214</ele>
        <time>2019-10-03T10:22:36Z</time>
      </trkpt>
      <trkpt lat="43.57908" lon="6.82158">
        <ele>213</ele>
        <time>2019-10-03T10:23:37Z</time>
      </trkpt>
      <trkpt lat="43.57886" lon="6.82269">
        <ele>205</ele>
        <time>2019-10-03T10:23:56Z</time>
      </trkpt>
      <trkpt lat="43.57803" lon="6.82295">
        <ele>209</ele>
        <time>2019-10-03T10:24:16Z</time>
      </trkpt>
      <trkpt lat="43.57697" lon="6.82424">
        <ele>212</ele>
        <time>2019-10-03T10:24:49Z</time>
      </trkpt>
      <trkpt lat="43.57681" lon="6.82542">
        <ele>209</ele>
        <time>2019-10-03T10:25:09Z</time>
      </trkpt>
      <trkpt lat="43.57602" lon="6.82654">
        <ele>214</ele>
        <time>2019-10-03T10:25:36Z</time>
      </trkpt>
      <trkpt lat="43.57555" lon="6.82771">
        <ele>217</ele>
        <time>2019-10-03T10:25:58Z</time>
      </trkpt>
      <trkpt lat="43.57525" lon="6.82798">
        <ele>217</ele>
        <time>2019-10-03T10:26:07Z</time>
      </trkpt>
      <trkpt lat="43.57456" lon="6.82889">
        <ele>215</ele>
        <time>2019-10-03T10:26:29Z</time>
      </trkpt>
      <trkpt lat="43.5738" lon="6.82974">
        <ele>215</ele>
        <time>2019-10-03T10:26:52Z</time>
      </trkpt>
      <trkpt lat="43.57324" lon="6.82995">
        <ele>216</ele>
        <time>2019-10-03T10:27:05Z</time>
      </trkpt>
      <trkpt lat="43.57249" lon="6.8283">
        <ele>228</ele>
        <time>2019-10-03T10:27:38Z</time>
      </trkpt>
      <trkpt lat="43.57187" lon="6.8276">
        <ele>232</ele>
        <time>2019-10-03T10:27:57Z</time>
      </trkpt>
      <trkpt lat="43.56954" lon="6.82913">
        <ele>241</ele>
        <time>2019-10-03T10:28:57Z</time>
      </trkpt>
      <trkpt lat="43.56871" lon="6.83023">
        <ele>250</ele>
        <time>2019-10-03T10:29:24Z</time>
      </trkpt>
      <trkpt lat="43.56795" lon="6.831">
        <ele>253</ele>
        <time>2019-10-03T10:29:46Z</time>
      </trkpt>
      <trkpt lat="43.56673" lon="6.83213">
        <ele>251</ele>
        <time>2019-10-03T10:30:21Z</time>
      </trkpt>
      <trkpt lat="43.56585" lon="6.83316">
        <ele>249</ele>
        <time>2019-10-03T10:30:48Z</time>
      </trkpt>
      <trkpt lat="43.56479" lon="6.83417">
        <ele>256</ele>
        <time>2019-10-03T10:31:18Z</time>
      </trkpt>
      <trkpt lat="43.56413" lon="6.83686">
        <ele>263</ele>
        <time>2019-10-03T10:32:06Z</time>
      </trkpt>
      <trkpt lat="43.56354" lon="6.83842">
        <ele>270</ele>
        <time>2019-10-03T10:32:35Z</time>
      </trkpt>
      <trkpt lat="43.56334" lon="6.83932">
        <ele>267</ele>
        <time>2019-10-03T10:32:51Z</time>
      </trkpt>
      <trkpt lat="43.56327" lon="6.8407">
        <ele>273</ele>
        <time>2019-10-03T10:33:15Z</time>
      </trkpt>
      <trkpt lat="43.56272" lon="6.84175">
        <ele>281</ele>
        <time>2019-10-03T10:33:37Z</time>
      </trkpt>
      <trkpt lat="43.5627" lon="6.84256">
        <ele>289</ele>
        <time>2019-10-03T10:33:50Z</time>
      </trkpt>
      <trkpt lat="43.56208" lon="6.84287">
        <ele>299</ele>
        <time>2019-10-03T10:34:06Z</time>
      </trkpt>
      <trkpt lat="43.56179" lon="6.84346">
        <ele>312</ele>
        <time>2019-10-03T10:34:18Z</time>
      </trkpt>
      <trkpt lat="43.56128" lon="6.84365">
        <ele>318</ele>
        <time>2019-10-03T10:34:30Z</time>
      </trkpt>
      <trkpt lat="43.56163" lon="6.84394">
        <ele>323</ele>
        <time>2019-10-03T10:34:40Z</time>
      </trkpt>
      <trkpt lat="43.56201" lon="6.84453">
        <ele>326</ele>
        <time>2019-10-03T10:34:53Z</time>
      </trkpt>
      <trkpt lat="43.56116" lon="6.84417">
        <ele>330</ele>
        <time>2019-10-03T10:35:14Z</time>
      </trkpt>
      <trkpt lat="43.5607" lon="6.84441">
        <ele>334</ele>
        <time>2019-10-03T10:35:25Z</time>
      </trkpt>
      <trkpt lat="43.5613" lon="6.84467">
        <ele>338</ele>
        <time>2019-10-03T10:35:40Z</time>
      </trkpt>
      <trkpt lat="43.56144" lon="6.84492">
        <ele>341</ele>
        <time>2019-10-03T10:35:45Z</time>
      </trkpt>
      <trkpt lat="43.56134" lon="6.84546">
        <ele>346</ele>
        <time>2019-10-03T10:35:55Z</time>
      </trkpt>
      <trkpt lat="43.56151" lon="6.84602">
        <ele>344</ele>
        <time>2019-10-03T10:36:05Z</time>
      </trkpt>
      <trkpt lat="43.56092" lon="6.84675">
        <ele>361</ele>
        <time>2019-10-03T10:36:24Z</time>
      </trkpt>
      <trkpt lat="43.56083" lon="6.84744">
        <ele>360</ele>
        <time>2019-10-03T10:36:35Z</time>
      </trkpt>
      <trkpt lat="43.5604" lon="6.84772">
        <ele>375</ele>
        <time>2019-10-03T10:36:47Z</time>
      </trkpt>
      <trkpt lat="43.5607" lon="6.84823">
        <ele>371</ele>
        <time>2019-10-03T10:36:58Z</time>
      </trkpt>
      <trkpt lat="43.56086" lon="6.8488">
        <ele>380</ele>
        <time>2019-10-03T10:37:08Z</time>
      </trkpt>
      <trkpt lat="43.56139" lon="6.84869">
        <ele>365</ele>
        <time>2019-10-03T10:37:21Z</time>
      </trkpt>
      <trkpt lat="43.56176" lon="6.85">
        <ele>381</ele>
        <time>2019-10-03T10:37:44Z</time>
      </trkpt>
      <trkpt lat="43.56147" lon="6.85114">
        <ele>394</ele>
        <time>2019-10-03T10:38:05Z</time>
      </trkpt>
      <trkpt lat="43.56199" lon="6.85129">
        <ele>393</ele>
        <time>2019-10-03T10:38:17Z</time>
      </trkpt>
      <trkpt lat="43.56294" lon="6.8509">
        <ele>388</ele>
        <time>2019-10-03T10:38:40Z</time>
      </trkpt>
      <trkpt lat="43.56373" lon="6.85188">
        <ele>400</ele>
        <time>2019-10-03T10:39:05Z</time>
      </trkpt>
      <trkpt lat="43.56268" lon="6.85193">
        <ele>406</ele>
        <time>2019-10-03T10:39:30Z</time>
      </trkpt>
      <trkpt lat="43.56153" lon="6.85268">
        <ele>410</ele>
        <time>2019-10-03T10:39:59Z</time>
      </trkpt>
      <trkpt lat="43.56027" lon="6.85194">
        <ele>404</ele>
        <time>2019-10-03T10:40:31Z</time>
      </trkpt>
      <trkpt lat="43.55959" lon="6.85062">
        <ele>411</ele>
        <time>2019-10-03T10:40:59Z</time>
      </trkpt>
      <trkpt lat="43.55871" lon="6.84939">
        <ele>402</ele>
        <time>2019-10-03T10:41:28Z</time>
      </trkpt>
      <trkpt lat="43.5582" lon="6.84954">
        <ele>397</ele>
        <time>2019-10-03T10:41:40Z</time>
      </trkpt>
      <trkpt lat="43.55775" lon="6.85041">
        <ele>393</ele>
        <time>2019-10-03T10:41:58Z</time>
      </trkpt>
      <trkpt lat="43.55748" lon="6.85179">
        <ele>384</ele>
        <time>2019-10-03T10:42:22Z</time>
      </trkpt>
      <trkpt lat="43.55639" lon="6.85259">
        <ele>371</ele>
        <time>2019-10-03T10:42:51Z</time>
      </trkpt>
      <trkpt lat="43.55609" lon="6.85319">
        <ele>373</ele>
        <time>2019-10-03T10:43:04Z</time>
      </trkpt>
      <trkpt lat="43.5553" lon="6.85323">
        <ele>375</ele>
        <time>2019-10-03T10:43:22Z</time>
      </trkpt>
      <trkpt lat="43.55458" lon="6.854">
        <ele>383</ele>
        <time>2019-10-03T10:43:43Z</time>
      </trkpt>
      <trkpt lat="43.55408" lon="6.85377">
        <ele>380</ele>
        <time>2019-10-03T10:43:56Z</time>
      </trkpt>
      <trkpt lat="43.55352" lon="6.85429">
        <ele>390</ele>
        <time>2019-10-03T10:44:11Z</time>
      </trkpt>
      <trkpt lat="43.55286" lon="6.85405">
        <ele>383</ele>
        <time>2019-10-03T10:44:27Z</time>
      </trkpt>
      <trkpt lat="43.5518" lon="6.85417">
        <ele>382</ele>
        <time>2019-10-03T10:44:52Z</time>
      </trkpt>
      <trkpt lat="43.55178" lon="6.85546">
        <ele>388</ele>
        <time>2019-10-03T10:45:14Z</time>
      </trkpt>
      <trkpt lat="43.55166" lon="6.85665">
        <ele>393</ele>
        <time>2019-10-03T10:45:34Z</time>
      </trkpt>
      <trkpt lat="43.55111" lon="6.85776">
        <ele>383</ele>
        <time>2019-10-03T10:45:57Z</time>
      </trkpt>
      <trkpt lat="43.5514" lon="6.85995">
        <ele>372</ele>
        <time>2019-10-03T10:46:35Z</time>
      </trkpt>
      <trkpt lat="43.5506" lon="6.85955">
        <ele>367</ele>
        <time>2019-10-03T10:46:55Z</time>
      </trkpt>
      <trkpt lat="43.55018" lon="6.85906">
        <ele>373</ele>
        <time>2019-10-03T10:47:08Z</time>
      </trkpt>
      <trkpt lat="43.54956" lon="6.85915">
        <ele>360</ele>
        <time>2019-10-03T10:47:22Z</time>
      </trkpt>
      <trkpt lat="43.54895" lon="6.85745">
        <ele>349</ele>
        <time>2019-10-03T10:47:54Z</time>
      </trkpt>
      <trkpt lat="43.54976" lon="6.85675">
        <ele>349</ele>
        <time>2019-10-03T10:48:17Z</time>
      </trkpt>
      <trkpt lat="43.5488" lon="6.8568">
        <ele>327</ele>
        <time>2019-10-03T10:48:39Z</time>
      </trkpt>
      <trkpt lat="43.54788" lon="6.85742">
        <ele>318</ele>
        <time>2019-10-03T10:49:03Z</time>
      </trkpt>
      <trkpt lat="43.54737" lon="6.85753">
        <ele>313</ele>
        <time>2019-10-03T10:49:15Z</time>
      </trkpt>
      <trkpt lat="43.54674" lon="6.85701">
        <ele>300</ele>
        <time>2019-10-03T10:49:32Z</time>
      </trkpt>
      <trkpt lat="43.54514" lon="6.85688">
        <ele>282</ele>
        <time>2019-10-03T10:50:10Z</time>
      </trkpt>
      <trkpt lat="43.54376" lon="6.85696">
        <ele>268</ele>
        <time>2019-10-03T10:50:42Z</time>
      </trkpt>
      <trkpt lat="43.54296" lon="6.85716">
        <ele>257</ele>
        <time>2019-10-03T10:51:01Z</time>
      </trkpt>
      <trkpt lat="43.54239" lon="6.85807">
        <ele>250</ele>
        <time>2019-10-03T10:51:21Z</time>
      </trkpt>
      <trkpt lat="43.54238" lon="6.85888">
        <ele>237</ele>
        <time>2019-10-03T10:51:35Z</time>
      </trkpt>
      <trkpt lat="43.54295" lon="6.85929">
        <ele>239</ele>
        <time>2019-10-03T10:51:50Z</time>
      </trkpt>
      <trkpt lat="43.54352" lon="6.85952">
        <ele>243</ele>
        <time>2019-10-03T10:52:04Z</time>
      </trkpt>
      <trkpt lat="43.54367" lon="6.86012">
        <ele>227</ele>
        <time>2019-10-03T10:52:14Z</time>
      </trkpt>
      <trkpt lat="43.54431" lon="6.86068">
        <ele>233</ele>
        <time>2019-10-03T10:52:32Z</time>
      </trkpt>
      <trkpt lat="43.54313" lon="6.86092">
        <ele>213</ele>
        <time>2019-10-03T10:53:00Z</time>
      </trkpt>
      <trkpt lat="43.5421" lon="6.86169">
        <ele>206</ele>
        <time>2019-10-03T10:53:27Z</time>
      </trkpt>
      <trkpt lat="43.54271" lon="6.86371">
        <ele>192</ele>
        <time>2019-10-03T10:54:04Z</time>
      </trkpt>
      <trkpt lat="43.54187" lon="6.86268">
        <ele>190</ele>
        <time>2019-10-03T10:54:31Z</time>
      </trkpt>
      <trkpt lat="43.54084" lon="6.86291">
        <ele>171</ele>
        <time>2019-10-03T10:54:55Z</time>
      </trkpt>
      <trkpt lat="43.54057" lon="6.86294">
        <ele>170</ele>
        <time>2019-10-03T10:55:01Z</time>
      </trkpt>
      <trkpt lat="43.53805" lon="6.86266">
        <ele>161</ele>
        <time>2019-10-03T10:56:00Z</time>
      </trkpt>
      <trkpt lat="43.53724" lon="6.86345">
        <ele>155</ele>
        <time>2019-10-03T10:56:24Z</time>
      </trkpt>
      <trkpt lat="43.53764" lon="6.86442">
        <ele>163</ele>
        <time>2019-10-03T10:56:42Z</time>
      </trkpt>
      <trkpt lat="43.53681" lon="6.86485">
        <ele>148</ele>
        <time>2019-10-03T10:57:03Z</time>
      </trkpt>
      <trkpt lat="43.53635" lon="6.86547">
        <ele>138</ele>
        <time>2019-10-03T10:57:18Z</time>
      </trkpt>
      <trkpt lat="43.53635" lon="6.86789">
        <ele>128</ele>
        <time>2019-10-03T10:57:59Z</time>
      </trkpt>
      <trkpt lat="43.53672" lon="6.86836">
        <ele>128</ele>
        <time>2019-10-03T10:58:11Z</time>
      </trkpt>
      <trkpt lat="43.5367" lon="6.86886">
        <ele>118</ele>
        <time>2019-10-03T10:58:19Z</time>
      </trkpt>
      <trkpt lat="43.53832" lon="6.86836">
        <ele>108</ele>
        <time>2019-10-03T10:58:58Z</time>
      </trkpt>
      <trkpt lat="43.53897" lon="6.86767">
        <ele>110</ele>
        <time>2019-10-03T10:59:17Z</time>
      </trkpt>
      <trkpt lat="43.53947" lon="6.86818">
        <ele>106</ele>
        <time>2019-10-03T10:59:32Z</time>
      </trkpt>
      <trkpt lat="43.53913" lon="6.86908">
        <ele>104</ele>
        <time>2019-10-03T10:59:49Z</time>
      </trkpt>
      <trkpt lat="43.5384" lon="6.86946">
        <ele>103</ele>
        <time>2019-10-03T11:00:07Z</time>
      </trkpt>
      <trkpt lat="43.53819" lon="6.87016">
        <ele>108</ele>
        <time>2019-10-03T11:00:20Z</time>
      </trkpt>
      <trkpt lat="43.53841" lon="6.8706">
        <ele>118</ele>
        <time>2019-10-03T11:00:29Z</time>
      </trkpt>
      <trkpt lat="43.53777" lon="6.87146">
        <ele>115</ele>
        <time>2019-10-03T11:00:50Z</time>
      </trkpt>
      <trkpt lat="43.53777" lon="6.87204">
        <ele>116</ele>
        <time>2019-10-03T11:01:00Z</time>
      </trkpt>
      <trkpt lat="43.53557" lon="6.87388">
        <ele>94</ele>
        <time>2019-10-03T11:02:00Z</time>
      </trkpt>
      <trkpt lat="43.53361" lon="6.87446">
        <ele>89</ele>
        <time>2019-10-03T11:02:47Z</time>
      </trkpt>
      <trkpt lat="43.5335" lon="6.87525">
        <ele>84</ele>
        <time>2019-10-03T11:03:00Z</time>
      </trkpt>
      <trkpt lat="43.53281" lon="6.87548">
        <ele>77</ele>
        <time>2019-10-03T11:03:17Z</time>
      </trkpt>
      <trkpt lat="43.53268" lon="6.87491">
        <ele>75</ele>
        <time>2019-10-03T11:03:27Z</time>
      </trkpt>
      <trkpt lat="43.53247" lon="6.87383">
        <ele>76</ele>
        <time>2019-10-03T11:03:46Z</time>
      </trkpt>
      <trkpt lat="43.53268" lon="6.87313">
        <ele>78</ele>
        <time>2019-10-03T11:03:59Z</time>
      </trkpt>
      <trkpt lat="43.53257" lon="6.87238">
        <ele>72</ele>
        <time>2019-10-03T11:04:12Z</time>
      </trkpt>
      <trkpt lat="43.53341" lon="6.87118">
        <ele>77</ele>
        <time>2019-10-03T11:04:40Z</time>
      </trkpt>
      <trkpt lat="43.53371" lon="6.86948">
        <ele>76</ele>
        <time>2019-10-03T11:05:10Z</time>
      </trkpt>
      <trkpt lat="43.53359" lon="6.8684">
        <ele>76</ele>
        <time>2019-10-03T11:05:28Z</time>
      </trkpt>
      <trkpt lat="43.53263" lon="6.86785">
        <ele>74</ele>
        <time>2019-10-03T11:05:52Z</time>
      </trkpt>
      <trkpt lat="43.53231" lon="6.8662">
        <ele>74</ele>
        <time>2019-10-03T11:06:21Z</time>
      </trkpt>
      <trkpt lat="43.53252" lon="6.86337">
        <ele>79</ele>
        <time>2019-10-03T11:07:09Z</time>
      </trkpt>
      <trkpt lat="43.53169" lon="6.86254">
        <ele>79</ele>
        <time>2019-10-03T11:07:33Z</time>
      </trkpt>
      <trkpt lat="43.53092" lon="6.86278">
        <ele>81</ele>
        <time>2019-10-03T11:07:52Z</time>
      </trkpt>
      <trkpt lat="43.52991" lon="6.86277">
        <ele>90</ele>
        <time>2019-10-03T11:08:15Z</time>
      </trkpt>
      <trkpt lat="43.52922" lon="6.86305">
        <ele>98</ele>
        <time>2019-10-03T11:08:32Z</time>
      </trkpt>
      <trkpt lat="43.5292" lon="6.8623">
        <ele>97</ele>
        <time>2019-10-03T11:08:45Z</time>
      </trkpt>
      <trkpt lat="43.52798" lon="6.86198">
        <ele>114</ele>
        <time>2019-10-03T11:09:14Z</time>
      </trkpt>
      <trkpt lat="43.52744" lon="6.86335">
        <ele>128</ele>
        <time>2019-10-03T11:09:40Z</time>
      </trkpt>
      <trkpt lat="43.52704" lon="6.86593">
        <ele>148</ele>
        <time>2019-10-03T11:10:25Z</time>
      </trkpt>
      <trkpt lat="43.52721" lon="6.86679">
        <ele>151</ele>
        <time>2019-10-03T11:10:40Z</time>
      </trkpt>
      <trkpt lat="43.52717" lon="6.86871">
        <ele>155</ele>
        <time>2019-10-03T11:11:13Z</time>
      </trkpt>
      <trkpt lat="43.52695" lon="6.86983">
        <ele>159</ele>
        <time>2019-10-03T11:11:32Z</time>
      </trkpt>
      <trkpt lat="43.52622" lon="6.87038">
        <ele>174</ele>
        <time>2019-10-03T11:11:52Z</time>
      </trkpt>
      <trkpt lat="43.52593" lon="6.87107">
        <ele>173</ele>
        <time>2019-10-03T11:12:05Z</time>
      </trkpt>
      <trkpt lat="43.52556" lon="6.87117">
        <ele>181</ele>
        <time>2019-10-03T11:12:14Z</time>
      </trkpt>
      <trkpt lat="43.52565" lon="6.87189">
        <ele>172</ele>
        <time>2019-10-03T11:12:26Z</time>
      </trkpt>
      <trkpt lat="43.52525" lon="6.87229">
        <ele>178</ele>
        <time>2019-10-03T11:12:38Z</time>
      </trkpt>
      <trkpt lat="43.52486" lon="6.87268">
        <ele>181</ele>
        <time>2019-10-03T11:12:49Z</time>
      </trkpt>
      <trkpt lat="43.52466" lon="6.87338">
        <ele>174</ele>
        <time>2019-10-03T11:13:02Z</time>
      </trkpt>
      <trkpt lat="43.52417" lon="6.87426">
        <ele>170</ele>
        <time>2019-10-03T11:13:21Z</time>
      </trkpt>
      <trkpt lat="43.52345" lon="6.87496">
        <ele>168</ele>
        <time>2019-10-03T11:13:41Z</time>
      </trkpt>
      <trkpt lat="43.52274" lon="6.87532">
        <ele>165</ele>
        <time>2019-10-03T11:13:59Z</time>
      </trkpt>
    </trkseg>
  </trk>
</gpx>